createdAt,value
2023-02-19T00:00:14.345Z,93.24
2023-02-19T00:02:40.645Z,93.28
2023-02-19T00:05:07.038Z,93.05
2023-02-19T00:07:33.379Z,92.96
2023-02-19T00:09:59.694Z,93.19
2023-02-19T00:12:26.021Z,93.15
2023-02-19T00:14:52.319Z,92.73
2023-02-19T00:17:18.654Z,92.63
2023-02-19T00:19:44.983Z,92.40
2023-02-19T00:22:11.314Z,92.60
2023-02-19T00:24:37.625Z,92.25
2023-02-19T00:27:03.970Z,91.87
2023-02-19T00:29:30.309Z,92.16
2023-02-19T00:31:56.762Z,92.00
2023-02-19T00:34:23.171Z,91.59
2023-02-19T00:36:49.490Z,91.49
2023-02-19T00:39:16.069Z,91.52
2023-02-19T00:41:42.568Z,91.34
2023-02-19T00:44:08.876Z,92.06
2023-02-19T00:46:35.214Z,91.41
2023-02-19T00:49:01.563Z,92.17
2023-02-19T00:51:27.884Z,92.39
2023-02-19T00:53:54.212Z,92.54
2023-02-19T00:56:20.533Z,93.06
2023-02-19T00:58:46.868Z,92.88
2023-02-19T01:01:13.319Z,92.83
2023-02-19T01:03:39.775Z,92.27
2023-02-19T01:06:06.177Z,92.19
2023-02-19T01:08:32.765Z,92.00
2023-02-19T01:10:59.135Z,91.95
2023-02-19T01:13:25.441Z,91.83
2023-02-19T01:15:51.837Z,91.68
2023-02-19T01:18:18.188Z,91.84
2023-02-19T01:20:44.495Z,91.59
2023-02-19T01:23:10.807Z,91.81
2023-02-19T01:25:37.231Z,91.98
2023-02-19T01:28:03.545Z,91.62
2023-02-19T01:30:29.906Z,91.73
2023-02-19T01:32:56.230Z,92.15
2023-02-19T01:35:23.080Z,91.80
2023-02-19T01:37:49.419Z,91.65
2023-02-19T01:40:15.743Z,92.17
2023-02-19T01:42:42.063Z,93.74
2023-02-19T01:45:08.377Z,93.79
2023-02-19T01:47:34.716Z,94.82
2023-02-19T01:50:01.034Z,96.34
2023-02-19T01:52:27.374Z,97.82
2023-02-19T01:54:53.686Z,100.00
2023-02-19T01:57:20.007Z,100.00
2023-02-19T01:59:46.319Z,100.00
2023-02-19T02:02:12.641Z,100.00
2023-02-19T02:04:38.951Z,100.00
2023-02-19T02:07:25.246Z,100.00
2023-02-19T02:10:10.183Z,100.00
2023-02-19T02:12:36.492Z,100.00
2023-02-19T02:15:02.808Z,100.00
2023-02-19T02:17:29.198Z,100.00
2023-02-19T02:19:55.526Z,100.00
2023-02-19T02:22:21.865Z,100.00
2023-02-19T02:24:48.222Z,100.00
2023-02-19T02:27:14.519Z,100.00
2023-02-19T02:29:40.841Z,100.00
2023-02-19T02:32:07.377Z,100.00
2023-02-19T02:34:33.728Z,100.00
2023-02-19T02:37:00.053Z,100.00
2023-02-19T02:39:26.413Z,100.00
2023-02-19T02:42:12.728Z,100.00
2023-02-19T02:44:39.072Z,100.00
2023-02-19T02:47:05.406Z,100.00
2023-02-19T02:49:31.705Z,100.00
2023-02-19T02:51:58.025Z,100.00
2023-02-19T02:54:43.352Z,100.00
2023-02-19T02:57:09.766Z,100.00
2023-02-19T02:59:36.094Z,100.00
2023-02-19T03:02:11.603Z,100.00
2023-02-19T03:04:38.004Z,100.00
2023-02-19T03:07:04.325Z,100.00
2023-02-19T03:09:30.680Z,100.00
2023-02-19T03:12:15.929Z,100.00
2023-02-19T03:15:00.844Z,100.00
2023-02-19T03:17:45.990Z,100.00
2023-02-19T03:20:12.318Z,100.00
2023-02-19T03:22:38.634Z,100.00
2023-02-19T03:25:23.910Z,100.00
2023-02-19T03:27:50.210Z,100.00
2023-02-19T03:30:16.618Z,100.00
2023-02-19T03:32:42.988Z,100.00
2023-02-19T03:35:09.302Z,100.00
2023-02-19T03:37:35.622Z,100.00
2023-02-19T03:40:01.979Z,100.00
2023-02-19T03:42:28.302Z,100.00
2023-02-19T03:44:54.646Z,100.00
2023-02-19T03:47:20.977Z,100.00
2023-02-19T03:49:49.093Z,100.00
2023-02-19T03:52:15.534Z,100.00
2023-02-19T03:54:41.864Z,100.00
2023-02-19T03:57:08.201Z,100.00
2023-02-19T03:59:34.539Z,100.00
2023-02-19T04:02:00.870Z,100.00
2023-02-19T04:04:27.291Z,100.00
2023-02-19T04:06:53.659Z,100.00
2023-02-19T04:09:19.966Z,100.00
2023-02-19T04:11:46.278Z,100.00
2023-02-19T04:14:12.601Z,100.00
2023-02-19T04:16:38.995Z,100.00
2023-02-19T04:19:05.361Z,100.00
2023-02-19T04:21:31.669Z,100.00
2023-02-19T04:23:58.016Z,100.00
2023-02-19T04:26:24.318Z,100.00
2023-02-19T04:28:50.660Z,100.00
2023-02-19T04:31:17.068Z,100.00
2023-02-19T04:33:43.477Z,100.00
2023-02-19T04:36:09.810Z,100.00
2023-02-19T04:38:36.141Z,100.00
2023-02-19T04:41:02.457Z,100.00
2023-02-19T04:43:28.839Z,100.00
2023-02-19T04:45:55.179Z,100.00
2023-02-19T04:48:21.564Z,100.00
2023-02-19T04:50:47.854Z,100.00
2023-02-19T04:53:14.194Z,100.00
2023-02-19T04:55:40.522Z,100.00
2023-02-19T04:58:06.888Z,100.00
2023-02-19T05:00:34.200Z,100.00
2023-02-19T05:03:01.098Z,100.00
2023-02-19T05:05:27.571Z,100.00
2023-02-19T05:07:54.261Z,100.00
2023-02-19T05:10:20.582Z,100.00
2023-02-19T05:12:46.905Z,100.00
2023-02-19T05:15:13.206Z,100.00
2023-02-19T05:17:39.528Z,100.00
2023-02-19T05:20:05.849Z,100.00
2023-02-19T05:22:32.219Z,100.00
2023-02-19T05:24:58.572Z,100.00
2023-02-19T05:27:24.900Z,100.00
2023-02-19T05:29:51.278Z,100.00
2023-02-19T05:32:17.630Z,100.00
2023-02-19T05:34:43.968Z,100.00
2023-02-19T05:37:10.346Z,100.00
2023-02-19T05:39:36.671Z,100.00
2023-02-19T05:42:02.991Z,100.00
2023-02-19T05:44:29.298Z,100.00
2023-02-19T05:46:55.622Z,100.00
2023-02-19T05:49:21.940Z,100.00
2023-02-19T05:51:48.254Z,100.00
2023-02-19T05:54:14.574Z,100.00
2023-02-19T05:56:40.884Z,100.00
2023-02-19T05:59:07.937Z,100.00
2023-02-19T06:01:34.245Z,100.00
2023-02-19T06:04:00.610Z,100.00
2023-02-19T06:06:27.008Z,100.00
2023-02-19T06:08:53.328Z,100.00
2023-02-19T06:11:19.635Z,100.00
2023-02-19T06:13:45.972Z,100.00
2023-02-19T06:16:12.386Z,100.00
2023-02-19T06:18:40.726Z,100.00
2023-02-19T06:21:07.028Z,100.00
2023-02-19T06:23:33.344Z,100.00
2023-02-19T06:25:59.637Z,100.00
2023-02-19T06:28:25.953Z,100.00
2023-02-19T06:30:52.266Z,100.00
2023-02-19T06:33:18.594Z,100.00
2023-02-19T06:35:44.925Z,100.00
2023-02-19T06:38:11.247Z,100.00
2023-02-19T06:40:37.574Z,100.00
2023-02-19T06:43:03.930Z,100.00
2023-02-19T06:45:30.263Z,100.00
2023-02-19T06:47:56.629Z,100.00
2023-02-19T06:50:22.958Z,100.00
2023-02-19T06:52:49.362Z,100.00
2023-02-19T06:55:15.703Z,100.00
2023-02-19T06:57:42.033Z,100.00
2023-02-19T07:00:08.370Z,100.00
2023-02-19T07:02:34.729Z,100.00
2023-02-19T07:05:01.016Z,100.00
2023-02-19T07:07:27.327Z,100.00
2023-02-19T07:09:53.642Z,100.00
2023-02-19T07:12:19.967Z,100.00
2023-02-19T07:14:46.290Z,100.00
2023-02-19T07:17:12.607Z,100.00
2023-02-19T07:19:38.945Z,100.00
2023-02-19T07:22:05.255Z,100.00
2023-02-19T07:24:31.573Z,100.00
2023-02-19T07:26:58.051Z,100.00
2023-02-19T07:29:24.350Z,100.00
2023-02-19T07:31:50.727Z,100.00
2023-02-19T07:34:17.117Z,100.00
2023-02-19T07:36:43.458Z,100.00
2023-02-19T07:39:11.745Z,100.00
2023-02-19T07:41:38.082Z,100.00
2023-02-19T07:44:04.401Z,100.00
2023-02-19T07:46:30.769Z,100.00
2023-02-19T07:48:57.162Z,100.00
2023-02-19T07:51:23.564Z,100.00
2023-02-19T07:53:50.596Z,100.00
2023-02-19T07:56:16.947Z,100.00
2023-02-19T07:58:43.340Z,100.00
2023-02-19T08:01:10.269Z,100.00
2023-02-19T08:03:37.030Z,100.00
2023-02-19T08:06:03.368Z,100.00
2023-02-19T08:08:29.688Z,100.00
2023-02-19T08:11:14.785Z,100.00
2023-02-19T08:13:41.118Z,100.00
2023-02-19T08:16:18.262Z,100.00
2023-02-19T08:18:46.564Z,100.00
2023-02-19T08:21:12.894Z,100.00
2023-02-19T08:23:39.252Z,100.00
2023-02-19T08:26:05.626Z,100.00
2023-02-19T08:28:31.994Z,100.00
2023-02-19T08:30:58.333Z,100.00
2023-02-19T08:33:24.681Z,100.00
2023-02-19T08:35:51.013Z,100.00
2023-02-19T08:38:17.380Z,100.00
2023-02-19T08:40:43.872Z,100.00
2023-02-19T08:43:10.176Z,100.00
2023-02-19T08:45:36.500Z,100.00
2023-02-19T08:48:02.818Z,100.00
2023-02-19T08:50:29.139Z,100.00
2023-02-19T08:52:55.536Z,100.00
2023-02-19T08:55:21.860Z,100.00
2023-02-19T08:57:50.324Z,100.00
2023-02-19T09:00:16.944Z,100.00
2023-02-19T09:02:43.279Z,100.00
2023-02-19T09:05:09.725Z,100.00
2023-02-19T09:07:36.050Z,100.00
2023-02-19T09:10:02.377Z,100.00
2023-02-19T09:12:28.681Z,100.00
2023-02-19T09:14:55.637Z,100.00
2023-02-19T09:17:21.957Z,100.00
2023-02-19T09:19:50.613Z,100.00
2023-02-19T09:22:17.310Z,100.00
2023-02-19T09:24:43.779Z,100.00
2023-02-19T09:27:10.907Z,100.00
2023-02-19T09:29:37.238Z,100.00
2023-02-19T09:32:03.750Z,100.00
2023-02-19T09:34:30.125Z,100.00
2023-02-19T09:36:56.472Z,100.00
2023-02-19T09:39:22.793Z,100.00
2023-02-19T09:41:49.169Z,100.00
2023-02-19T09:44:15.497Z,100.00
2023-02-19T09:46:41.823Z,100.00
2023-02-19T09:49:08.134Z,100.00
2023-02-19T09:51:34.495Z,100.00
2023-02-19T09:54:00.853Z,100.00
2023-02-19T09:56:27.202Z,100.00
2023-02-19T09:58:53.744Z,100.00
2023-02-19T10:01:20.094Z,100.00
2023-02-19T10:03:47.152Z,100.00
2023-02-19T10:06:13.504Z,100.00
2023-02-19T10:08:39.834Z,100.00
2023-02-19T10:11:06.780Z,100.00
2023-02-19T10:15:25.324Z,96.78
2023-02-19T10:17:51.673Z,96.78
2023-02-19T10:20:18.522Z,96.88
2023-02-19T10:22:44.854Z,100.00
2023-02-19T10:25:11.172Z,99.67
2023-02-19T10:27:37.515Z,99.43
2023-02-19T10:30:03.890Z,99.13
2023-02-19T10:32:30.788Z,99.16
2023-02-19T10:34:57.127Z,100.00
2023-02-19T10:37:23.470Z,96.74
2023-02-19T10:39:49.945Z,96.51
2023-02-19T10:42:16.328Z,94.40
2023-02-19T10:44:42.716Z,93.55
2023-02-19T10:47:09.042Z,92.83
2023-02-19T10:49:35.623Z,92.35
2023-02-19T10:52:02.525Z,93.40
2023-02-19T10:54:30.262Z,91.29
2023-02-19T10:56:56.744Z,92.74
2023-02-19T10:59:23.082Z,94.76
2023-02-19T11:01:49.416Z,92.66
2023-02-19T11:04:15.782Z,92.97
2023-02-19T11:06:42.164Z,92.33
2023-02-19T11:09:08.510Z,90.13
2023-02-19T11:11:34.899Z,92.91
2023-02-19T11:14:01.214Z,92.84
2023-02-19T11:16:27.596Z,91.99
2023-02-19T11:18:57.037Z,91.86
2023-02-19T11:21:23.655Z,88.84
2023-02-19T11:23:49.997Z,87.14
2023-02-19T11:26:16.336Z,88.94
2023-02-19T11:28:42.648Z,90.55
2023-02-19T11:31:09.186Z,88.91
2023-02-19T11:33:35.724Z,89.19
2023-02-19T11:36:02.067Z,87.49
2023-02-19T11:38:28.450Z,84.52
2023-02-19T11:40:54.851Z,83.58
2023-02-19T11:43:21.149Z,83.63
2023-02-19T11:45:47.466Z,85.14
2023-02-19T11:48:13.845Z,87.63
2023-02-19T11:50:42.706Z,87.37
2023-02-19T11:53:09.007Z,87.16
2023-02-19T11:55:35.389Z,85.89
2023-02-19T11:58:01.725Z,86.60
2023-02-19T12:00:28.149Z,86.46
2023-02-19T12:02:54.638Z,86.46
2023-02-19T12:05:22.000Z,87.63
2023-02-19T12:07:51.586Z,85.20
2023-02-19T12:10:17.898Z,83.99
2023-02-19T12:12:44.233Z,83.65
2023-02-19T12:15:10.567Z,83.22
2023-02-19T12:17:36.892Z,84.13
2023-02-19T12:20:03.226Z,83.88
2023-02-19T12:22:29.628Z,79.26
2023-02-19T12:24:56.001Z,78.24
2023-02-19T12:27:22.335Z,77.78
2023-02-19T12:29:48.679Z,76.30
2023-02-19T12:32:15.692Z,75.52
2023-02-19T12:34:42.001Z,75.95
2023-02-19T12:37:08.317Z,75.35
2023-02-19T12:39:34.629Z,74.61
2023-02-19T12:42:00.981Z,73.87
2023-02-19T12:44:28.681Z,73.81
2023-02-19T12:46:55.003Z,72.18
2023-02-19T12:49:21.322Z,72.66
2023-02-19T12:51:47.672Z,71.97
2023-02-19T12:54:14.045Z,73.93
2023-02-19T12:56:40.356Z,72.71
2023-02-19T12:59:06.761Z,71.80
2023-02-19T13:01:33.185Z,72.60
2023-02-19T13:03:59.559Z,71.20
2023-02-19T13:06:25.912Z,73.14
2023-02-19T13:09:05.901Z,74.52
2023-02-19T13:11:34.160Z,72.35
2023-02-19T13:14:01.446Z,71.70
2023-02-19T13:16:33.094Z,69.94
2023-02-19T13:18:59.524Z,70.71
2023-02-19T13:21:44.749Z,69.70
2023-02-19T13:24:11.070Z,69.72
2023-02-19T13:26:37.392Z,70.65
2023-02-19T13:29:03.694Z,67.85
2023-02-19T13:31:30.111Z,68.12
2023-02-19T13:33:56.473Z,67.97
2023-02-19T13:36:22.802Z,66.95
2023-02-19T13:38:49.194Z,68.01
2023-02-19T13:41:15.538Z,65.65
2023-02-19T13:43:43.008Z,65.38
2023-02-19T13:46:09.417Z,64.65
2023-02-19T13:48:35.798Z,63.66
2023-02-19T13:51:02.109Z,64.92
2023-02-19T13:53:28.428Z,65.33
2023-02-19T13:55:54.894Z,65.37
2023-02-19T13:58:21.227Z,64.34
2023-02-19T14:00:49.311Z,65.46
2023-02-19T14:03:15.787Z,66.64
2023-02-19T14:05:42.107Z,65.60
2023-02-19T14:08:08.449Z,64.90
2023-02-19T14:10:34.884Z,64.61
2023-02-19T14:13:01.203Z,65.12
2023-02-19T14:15:27.554Z,64.81
2023-02-19T14:17:55.343Z,64.96
2023-02-19T14:20:21.757Z,64.07
2023-02-19T14:22:57.080Z,65.62
2023-02-19T14:25:23.384Z,65.37
2023-02-19T14:27:49.729Z,66.52
2023-02-19T14:30:16.069Z,66.42
2023-02-19T14:32:45.148Z,65.51
2023-02-19T14:35:11.584Z,65.44
2023-02-19T14:37:37.909Z,65.99
2023-02-19T14:40:04.241Z,65.83
2023-02-19T14:42:34.104Z,67.62
2023-02-19T14:45:00.411Z,67.13
2023-02-19T14:47:26.745Z,67.83
2023-02-19T14:49:53.057Z,66.92
2023-02-19T14:52:19.453Z,67.77
2023-02-19T14:54:45.827Z,67.89
2023-02-19T14:57:12.227Z,68.03
2023-02-19T14:59:38.574Z,68.22
2023-02-19T15:02:04.886Z,68.40
2023-02-19T15:04:31.580Z,67.76
2023-02-19T15:06:57.920Z,67.70
2023-02-19T15:09:24.223Z,68.31
2023-02-19T15:11:51.242Z,68.43
2023-02-19T15:14:17.557Z,67.06
2023-02-19T15:16:43.862Z,66.25
2023-02-19T15:19:10.190Z,66.18
2023-02-19T15:21:36.523Z,66.89
2023-02-19T15:24:02.831Z,66.94
2023-02-19T15:26:29.205Z,67.22
2023-02-19T15:28:55.578Z,67.11
2023-02-19T15:31:22.020Z,66.51
2023-02-19T15:33:48.405Z,67.24
2023-02-19T15:36:14.728Z,66.65
2023-02-19T15:38:41.064Z,67.96
2023-02-19T15:41:07.613Z,67.17
2023-02-19T15:43:33.956Z,67.19
2023-02-19T15:46:00.343Z,67.40
2023-02-19T15:48:26.662Z,67.67
2023-02-19T15:50:52.994Z,67.62
2023-02-19T15:53:19.342Z,68.72
2023-02-19T15:55:45.667Z,69.46
2023-02-19T15:58:12.041Z,69.58
2023-02-19T16:00:38.369Z,69.65
2023-02-19T16:03:05.641Z,69.60
2023-02-19T16:05:37.094Z,70.14
2023-02-19T16:08:03.409Z,70.12
2023-02-19T16:10:32.600Z,69.63
2023-02-19T16:12:58.948Z,69.90
2023-02-19T16:15:25.270Z,71.18
2023-02-19T16:17:51.854Z,70.18
2023-02-19T16:20:18.187Z,70.45
2023-02-19T16:22:44.603Z,70.25
2023-02-19T16:25:10.933Z,70.57
2023-02-19T16:27:37.269Z,70.64
2023-02-19T16:30:03.630Z,70.85
2023-02-19T16:32:30.141Z,71.04
2023-02-19T16:34:56.562Z,71.49
2023-02-19T16:37:22.909Z,71.88
2023-02-19T16:39:49.231Z,71.40
2023-02-19T16:42:15.642Z,71.88
2023-02-19T16:44:42.006Z,72.95
2023-02-19T16:47:08.346Z,73.04
2023-02-19T16:49:34.670Z,72.84
2023-02-19T16:52:02.673Z,73.14
2023-02-19T16:54:30.488Z,73.78
2023-02-19T16:56:56.836Z,74.26
2023-02-19T16:59:23.200Z,74.44
2023-02-19T17:01:49.504Z,75.54
2023-02-19T17:04:16.083Z,75.25
2023-02-19T17:06:42.618Z,75.75
2023-02-19T17:09:08.955Z,75.84
2023-02-19T17:11:35.271Z,76.77
2023-02-19T17:14:02.312Z,76.02
2023-02-19T17:16:28.672Z,76.82
2023-02-19T17:18:55.099Z,77.28
2023-02-19T17:21:21.403Z,77.41
2023-02-19T17:23:47.751Z,77.31
2023-02-19T17:26:14.054Z,77.74
2023-02-19T17:28:41.489Z,77.62
2023-02-19T17:31:07.899Z,77.46
2023-02-19T17:33:35.502Z,77.61
2023-02-19T17:36:01.850Z,78.43
2023-02-19T17:38:28.689Z,77.92
2023-02-19T17:40:55.013Z,77.78
2023-02-19T17:43:21.337Z,77.52
2023-02-19T17:45:47.704Z,77.85
2023-02-19T17:48:14.125Z,77.63
2023-02-19T17:50:40.452Z,78.63
2023-02-19T17:53:06.777Z,77.10
2023-02-19T17:55:33.749Z,78.06
2023-02-19T17:58:00.096Z,77.78
2023-02-19T18:00:26.514Z,77.89
2023-02-19T18:02:53.070Z,78.30
2023-02-19T18:05:19.454Z,77.89
2023-02-19T18:07:45.763Z,77.64
2023-02-19T18:10:12.194Z,78.13
2023-02-19T18:12:38.514Z,77.32
2023-02-19T18:15:04.856Z,77.56
2023-02-19T18:17:31.199Z,77.37
2023-02-19T18:19:57.545Z,78.00
2023-02-19T18:22:23.888Z,77.79
2023-02-19T18:24:50.189Z,78.16
2023-02-19T18:27:18.517Z,77.73
2023-02-19T18:29:44.860Z,78.42
2023-02-19T18:32:11.259Z,79.00
2023-02-19T18:34:37.576Z,78.43
2023-02-19T18:37:04.080Z,79.26
2023-02-19T18:39:30.415Z,79.87
2023-02-19T18:41:58.226Z,79.21
2023-02-19T18:44:24.544Z,79.65
2023-02-19T18:46:51.040Z,80.22
2023-02-19T18:49:17.387Z,80.80
2023-02-19T18:51:45.116Z,80.84
2023-02-19T18:54:11.588Z,81.35
2023-02-19T18:56:37.903Z,81.78
2023-02-19T18:59:04.434Z,82.24
2023-02-19T19:01:30.986Z,82.27
2023-02-19T19:03:57.400Z,82.11
2023-02-19T19:06:23.806Z,81.67
2023-02-19T19:08:50.155Z,81.81
2023-02-19T19:11:16.572Z,82.39
2023-02-19T19:13:42.933Z,82.38
2023-02-19T19:16:09.254Z,82.78
2023-02-19T19:18:38.222Z,82.76
2023-02-19T19:21:04.535Z,82.64
2023-02-19T19:23:30.845Z,81.79
2023-02-19T19:25:57.140Z,82.70
2023-02-19T19:28:25.441Z,83.14
2023-02-19T19:30:51.845Z,83.61
2023-02-19T19:33:18.171Z,83.67
2023-02-19T19:35:44.476Z,83.26
2023-02-19T19:38:10.794Z,83.58
2023-02-19T19:40:37.379Z,84.03
2023-02-19T19:43:03.710Z,84.22
2023-02-19T19:45:30.078Z,84.81
2023-02-19T19:47:56.389Z,84.54
2023-02-19T19:50:22.761Z,84.47
2023-02-19T19:52:49.095Z,84.97
2023-02-19T19:55:16.461Z,85.36
2023-02-19T19:57:42.955Z,85.33
2023-02-19T20:00:09.372Z,85.86
2023-02-19T20:02:36.153Z,85.56
2023-02-19T20:05:03.136Z,86.43
2023-02-19T20:07:29.526Z,85.97
2023-02-19T20:09:59.477Z,86.25
2023-02-19T20:12:25.842Z,86.47
2023-02-19T20:14:52.157Z,86.72
2023-02-19T20:17:18.474Z,87.97
2023-02-19T20:19:44.809Z,88.82
2023-02-19T20:22:12.269Z,88.57
2023-02-19T20:24:38.595Z,88.34
2023-02-19T20:27:04.897Z,87.92
2023-02-19T20:29:31.301Z,89.19
2023-02-19T20:32:00.039Z,89.43
2023-02-19T20:34:26.539Z,89.42
2023-02-19T20:36:52.925Z,89.52
2023-02-19T20:39:19.360Z,88.70
2023-02-19T20:41:45.700Z,88.54
2023-02-19T20:44:12.019Z,89.19
2023-02-19T20:46:38.344Z,90.09
2023-02-19T20:49:04.679Z,89.65
2023-02-19T20:51:30.973Z,89.91
2023-02-19T20:53:57.290Z,89.43
2023-02-19T20:56:25.396Z,90.88
2023-02-19T20:58:51.696Z,89.80
2023-02-19T21:01:18.236Z,90.09
2023-02-19T21:03:44.572Z,90.19
2023-02-19T21:06:11.256Z,89.83
2023-02-19T21:08:37.808Z,89.94
2023-02-19T21:11:04.156Z,90.71
2023-02-19T21:13:30.483Z,91.07
2023-02-19T21:15:56.836Z,91.44
2023-02-19T21:18:23.165Z,91.42
2023-02-19T21:20:49.472Z,92.74
2023-02-19T21:23:15.810Z,93.67
2023-02-19T21:25:42.153Z,93.84
2023-02-19T21:28:09.773Z,92.55
2023-02-19T21:30:36.148Z,92.67
2023-02-19T21:33:02.634Z,91.95
2023-02-19T21:35:29.368Z,92.02
2023-02-19T21:37:55.698Z,93.15
2023-02-19T21:40:23.540Z,92.93
2023-02-19T21:42:49.862Z,92.30
2023-02-19T22:02:11.596Z,93.07
2023-02-19T22:04:37.911Z,94.32
2023-02-19T22:07:04.235Z,93.50
2023-02-19T22:09:30.579Z,94.89
2023-02-19T22:11:56.894Z,95.36
2023-02-19T22:14:23.246Z,95.37
2023-02-19T22:16:49.684Z,95.79
2023-02-19T22:19:16.039Z,95.26
2023-02-19T22:21:42.362Z,94.75
2023-02-19T22:24:08.673Z,95.21
2023-02-19T22:26:35.001Z,95.48
2023-02-19T22:29:05.891Z,95.48
2023-02-19T22:31:32.290Z,96.08
2023-02-19T22:33:58.640Z,96.11
2023-02-19T22:36:24.994Z,95.57
2023-02-19T22:38:51.334Z,96.05
2023-02-19T22:41:17.677Z,95.37
2023-02-19T22:43:44.000Z,95.55
2023-02-19T22:46:10.495Z,95.27
2023-02-19T22:48:36.955Z,95.01
2023-02-19T22:51:03.262Z,95.24
2023-02-19T22:53:29.582Z,94.64
2023-02-19T22:55:55.895Z,95.82
2023-02-19T22:58:22.302Z,94.85
2023-02-19T23:00:48.618Z,94.69
2023-02-19T23:03:14.980Z,93.84
2023-02-19T23:05:41.306Z,93.06
2023-02-19T23:08:07.624Z,93.00
2023-02-19T23:10:34.436Z,93.41
2023-02-19T23:13:01.037Z,93.61
2023-02-19T23:15:27.354Z,93.22
2023-02-19T23:17:53.669Z,93.27
2023-02-19T23:20:20.026Z,92.64
2023-02-19T23:22:46.340Z,92.81
2023-02-19T23:25:12.880Z,92.88
2023-02-19T23:27:39.203Z,92.75
2023-02-19T23:30:05.602Z,91.93
2023-02-19T23:32:31.942Z,92.36
2023-02-19T23:34:58.248Z,92.22
2023-02-19T23:37:24.630Z,92.34
2023-02-19T23:39:50.935Z,93.19
2023-02-19T23:42:17.284Z,92.08
2023-02-19T23:44:43.593Z,91.68
2023-02-19T23:47:09.896Z,91.64
2023-02-19T23:49:36.200Z,90.89
2023-02-19T23:52:02.500Z,91.95
2023-02-19T23:54:28.850Z,92.04
2023-02-19T23:56:55.192Z,91.90
2023-02-19T23:59:21.491Z,92.31
